sensor_id;sensor_type;location;lat;lon;timestamp;temperature;humidity
16846;DHT22;8539;53.188;8.696;2023-04-24T00:01:44;11.40;99.90
16846;DHT22;8539;53.188;8.696;2023-04-24T00:04:11;11.40;99.90
16846;DHT22;8539;53.188;8.696;2023-04-24T00:06:39;11.40;99.90
16846;DHT22;8539;53.188;8.696;2023-04-24T00:09:09;11.40;99.90
16846;DHT22;8539;53.188;8.696;2023-04-24T00:11:36;11.40;99.90
16846;DHT22;8539;53.188;8.696;2023-04-24T00:14:03;11.40;99.90
16846;DHT22;8539;53.188;8.696;2023-04-24T00:16:29;11.40;99.90
16846;DHT22;8539;53.188;8.696;2023-04-24T00:18:55;11.50;99.90
16846;DHT22;8539;53.188;8.696;2023-04-24T00:21:21;11.50;99.90
16846;DHT22;8539;53.188;8.696;2023-04-24T00:23:47;11.50;99.90
16846;DHT22;8539;53.188;8.696;2023-04-24T00:26:14;11.50;99.90
16846;DHT22;8539;53.188;8.696;2023-04-24T00:28:40;11.50;99.90
16846;DHT22;8539;53.188;8.696;2023-04-24T00:31:06;11.60;99.90
16846;DHT22;8539;53.188;8.696;2023-04-24T00:33:32;11.50;99.90
16846;DHT22;8539;53.188;8.696;2023-04-24T00:36:03;11.50;99.90
16846;DHT22;8539;53.188;8.696;2023-04-24T00:38:30;11.50;99.90
16846;DHT22;8539;53.188;8.696;2023-04-24T00:40:56;11.50;99.90
16846;DHT22;8539;53.188;8.696;2023-04-24T00:43:22;11.50;99.90
16846;DHT22;8539;53.188;8.696;2023-04-24T00:45:48;11.50;99.90
16846;DHT22;8539;53.188;8.696;2023-04-24T00:48:15;11.40;99.90
16846;DHT22;8539;53.188;8.696;2023-04-24T00:50:42;11.40;99.90
16846;DHT22;8539;53.188;8.696;2023-04-24T00:53:08;11.40;99.90
16846;DHT22;8539;53.188;8.696;2023-04-24T00:55:34;11.40;99.90
16846;DHT22;8539;53.188;8.696;2023-04-24T00:58:03;11.40;99.90
16846;DHT22;8539;53.188;8.696;2023-04-24T01:00:29;11.30;99.90
16846;DHT22;8539;53.188;8.696;2023-04-24T01:02:56;11.30;99.90
16846;DHT22;8539;53.188;8.696;2023-04-24T01:05:23;11.30;99.90
16846;DHT22;8539;53.188;8.696;2023-04-24T01:07:49;11.20;99.90
16846;DHT22;8539;53.188;8.696;2023-04-24T01:10:16;11.20;99.90
16846;DHT22;8539;53.188;8.696;2023-04-24T01:12:46;11.20;99.90
16846;DHT22;8539;53.188;8.696;2023-04-24T01:15:12;11.10;99.90
16846;DHT22;8539;53.188;8.696;2023-04-24T01:17:38;11.10;99.90
16846;DHT22;8539;53.188;8.696;2023-04-24T01:20:05;11.10;99.90
16846;DHT22;8539;53.188;8.696;2023-04-24T01:22:33;11.00;99.90
16846;DHT22;8539;53.188;8.696;2023-04-24T01:25:00;11.00;99.90
16846;DHT22;8539;53.188;8.696;2023-04-24T01:27:27;11.00;99.90
16846;DHT22;8539;53.188;8.696;2023-04-24T01:29:53;11.00;99.90
16846;DHT22;8539;53.188;8.696;2023-04-24T01:32:19;10.90;99.90
16846;DHT22;8539;53.188;8.696;2023-04-24T01:34:46;10.90;99.90
16846;DHT22;8539;53.188;8.696;2023-04-24T01:37:13;10.90;99.90
16846;DHT22;8539;53.188;8.696;2023-04-24T01:39:39;10.90;99.90
16846;DHT22;8539;53.188;8.696;2023-04-24T01:42:05;10.90;99.90
16846;DHT22;8539;53.188;8.696;2023-04-24T01:44:33;10.90;99.90
16846;DHT22;8539;53.188;8.696;2023-04-24T01:47:00;10.90;99.90
16846;DHT22;8539;53.188;8.696;2023-04-24T01:49:27;10.90;99.90
16846;DHT22;8539;53.188;8.696;2023-04-24T01:51:53;10.90;99.90
16846;DHT22;8539;53.188;8.696;2023-04-24T01:54:19;10.90;99.90
16846;DHT22;8539;53.188;8.696;2023-04-24T01:56:45;10.90;99.90
16846;DHT22;8539;53.188;8.696;2023-04-24T01:59:12;10.90;99.90
16846;DHT22;8539;53.188;8.696;2023-04-24T02:01:38;10.90;99.90
16846;DHT22;8539;53.188;8.696;2023-04-24T02:04:06;10.90;99.90
16846;DHT22;8539;53.188;8.696;2023-04-24T02:06:32;10.90;99.90
16846;DHT22;8539;53.188;8.696;2023-04-24T02:08:59;10.90;99.90
16846;DHT22;8539;53.188;8.696;2023-04-24T02:11:25;10.90;99.90
16846;DHT22;8539;53.188;8.696;2023-04-24T02:13:53;10.90;99.90
16846;DHT22;8539;53.188;8.696;2023-04-24T02:16:19;11.00;99.90
16846;DHT22;8539;53.188;8.696;2023-04-24T02:18:45;11.00;99.90
16846;DHT22;8539;53.188;8.696;2023-04-24T02:21:11;11.00;99.90
16846;DHT22;8539;53.188;8.696;2023-04-24T02:23:37;11.00;99.90
16846;DHT22;8539;53.188;8.696;2023-04-24T02:26:04;11.00;99.90
16846;DHT22;8539;53.188;8.696;2023-04-24T02:28:30;11.00;99.90
16846;DHT22;8539;53.188;8.696;2023-04-24T02:30:56;10.90;99.90
16846;DHT22;8539;53.188;8.696;2023-04-24T02:33:22;10.90;99.90
16846;DHT22;8539;53.188;8.696;2023-04-24T02:35:48;10.90;99.90
16846;DHT22;8539;53.188;8.696;2023-04-24T02:38:14;11.00;99.90
16846;DHT22;8539;53.188;8.696;2023-04-24T02:40:40;11.00;99.90
16846;DHT22;8539;53.188;8.696;2023-04-24T02:43:06;10.90;99.90
16846;DHT22;8539;53.188;8.696;2023-04-24T02:45:32;10.90;99.90
16846;DHT22;8539;53.188;8.696;2023-04-24T02:48:00;11.00;99.90
16846;DHT22;8539;53.188;8.696;2023-04-24T02:50:26;10.90;99.90
16846;DHT22;8539;53.188;8.696;2023-04-24T02:52:52;10.90;99.90
16846;DHT22;8539;53.188;8.696;2023-04-24T02:55:19;10.90;99.90
16846;DHT22;8539;53.188;8.696;2023-04-24T02:57:45;10.80;99.90
16846;DHT22;8539;53.188;8.696;2023-04-24T03:00:12;10.80;99.90
16846;DHT22;8539;53.188;8.696;2023-04-24T03:02:39;10.80;99.90
16846;DHT22;8539;53.188;8.696;2023-04-24T03:05:05;10.70;99.90
16846;DHT22;8539;53.188;8.696;2023-04-24T03:07:31;10.70;99.90
16846;DHT22;8539;53.188;8.696;2023-04-24T03:09:58;10.60;99.90
16846;DHT22;8539;53.188;8.696;2023-04-24T03:12:24;10.60;99.90
16846;DHT22;8539;53.188;8.696;2023-04-24T03:14:50;10.60;99.90
16846;DHT22;8539;53.188;8.696;2023-04-24T03:17:16;10.50;99.90
16846;DHT22;8539;53.188;8.696;2023-04-24T03:19:42;10.50;99.90
16846;DHT22;8539;53.188;8.696;2023-04-24T03:22:08;10.50;99.90
16846;DHT22;8539;53.188;8.696;2023-04-24T03:24:35;10.50;99.90
16846;DHT22;8539;53.188;8.696;2023-04-24T03:27:01;10.40;99.90
16846;DHT22;8539;53.188;8.696;2023-04-24T03:29:27;10.40;99.90
16846;DHT22;8539;53.188;8.696;2023-04-24T03:31:53;10.40;99.90
16846;DHT22;8539;53.188;8.696;2023-04-24T03:34:19;10.40;99.90
16846;DHT22;8539;53.188;8.696;2023-04-24T03:36:45;10.40;99.90
16846;DHT22;8539;53.188;8.696;2023-04-24T03:39:13;10.40;99.90
16846;DHT22;8539;53.188;8.696;2023-04-24T03:41:39;10.40;99.90
16846;DHT22;8539;53.188;8.696;2023-04-24T03:44:05;10.40;99.90
16846;DHT22;8539;53.188;8.696;2023-04-24T03:46:31;10.40;99.90
16846;DHT22;8539;53.188;8.696;2023-04-24T03:48:57;10.40;99.90
16846;DHT22;8539;53.188;8.696;2023-04-24T03:51:23;10.40;99.90
16846;DHT22;8539;53.188;8.696;2023-04-24T03:53:50;10.40;99.90
16846;DHT22;8539;53.188;8.696;2023-04-24T03:56:16;10.40;99.90
16846;DHT22;8539;53.188;8.696;2023-04-24T03:58:42;10.50;99.90
16846;DHT22;8539;53.188;8.696;2023-04-24T04:01:08;10.40;99.90
16846;DHT22;8539;53.188;8.696;2023-04-24T04:03:34;10.50;99.90
16846;DHT22;8539;53.188;8.696;2023-04-24T04:06:00;10.50;99.90
16846;DHT22;8539;53.188;8.696;2023-04-24T04:08:26;10.50;99.90
16846;DHT22;8539;53.188;8.696;2023-04-24T04:10:52;10.50;99.90
16846;DHT22;8539;53.188;8.696;2023-04-24T04:13:18;10.50;99.90
16846;DHT22;8539;53.188;8.696;2023-04-24T04:15:45;10.50;99.90
16846;DHT22;8539;53.188;8.696;2023-04-24T04:18:11;10.40;99.90
16846;DHT22;8539;53.188;8.696;2023-04-24T04:20:37;10.50;99.90
16846;DHT22;8539;53.188;8.696;2023-04-24T04:23:04;10.50;99.90
16846;DHT22;8539;53.188;8.696;2023-04-24T04:25:30;10.50;99.90
16846;DHT22;8539;53.188;8.696;2023-04-24T04:27:56;10.50;99.90
16846;DHT22;8539;53.188;8.696;2023-04-24T04:30:23;10.50;99.90
16846;DHT22;8539;53.188;8.696;2023-04-24T04:32:50;10.50;99.90
16846;DHT22;8539;53.188;8.696;2023-04-24T04:35:18;10.50;99.90
16846;DHT22;8539;53.188;8.696;2023-04-24T04:37:44;10.60;99.90
16846;DHT22;8539;53.188;8.696;2023-04-24T04:40:10;10.50;99.90
16846;DHT22;8539;53.188;8.696;2023-04-24T04:42:37;10.60;99.90
16846;DHT22;8539;53.188;8.696;2023-04-24T04:45:09;10.60;99.90
16846;DHT22;8539;53.188;8.696;2023-04-24T04:47:35;10.60;99.90
16846;DHT22;8539;53.188;8.696;2023-04-24T04:50:01;10.60;99.90
16846;DHT22;8539;53.188;8.696;2023-04-24T04:52:27;10.60;99.90
16846;DHT22;8539;53.188;8.696;2023-04-24T04:54:53;10.60;99.90
16846;DHT22;8539;53.188;8.696;2023-04-24T04:57:19;10.70;99.90
16846;DHT22;8539;53.188;8.696;2023-04-24T04:59:46;10.60;99.90
16846;DHT22;8539;53.188;8.696;2023-04-24T05:02:12;10.60;99.90
16846;DHT22;8539;53.188;8.696;2023-04-24T05:04:38;10.60;99.90
16846;DHT22;8539;53.188;8.696;2023-04-24T05:07:04;10.70;99.90
16846;DHT22;8539;53.188;8.696;2023-04-24T05:09:31;10.70;99.90
16846;DHT22;8539;53.188;8.696;2023-04-24T05:11:57;10.70;99.90
16846;DHT22;8539;53.188;8.696;2023-04-24T05:14:23;10.70;99.90
16846;DHT22;8539;53.188;8.696;2023-04-24T05:16:49;10.70;99.90
16846;DHT22;8539;53.188;8.696;2023-04-24T05:19:15;10.60;99.90
16846;DHT22;8539;53.188;8.696;2023-04-24T05:21:41;10.70;99.90
16846;DHT22;8539;53.188;8.696;2023-04-24T05:24:08;10.70;99.90
16846;DHT22;8539;53.188;8.696;2023-04-24T05:26:34;10.70;99.90
16846;DHT22;8539;53.188;8.696;2023-04-24T05:29:01;10.80;99.90
16846;DHT22;8539;53.188;8.696;2023-04-24T05:31:28;10.70;99.90
16846;DHT22;8539;53.188;8.696;2023-04-24T05:33:54;10.80;99.90
16846;DHT22;8539;53.188;8.696;2023-04-24T05:36:20;10.80;99.90
16846;DHT22;8539;53.188;8.696;2023-04-24T05:38:46;10.80;99.90
16846;DHT22;8539;53.188;8.696;2023-04-24T05:41:12;10.80;99.90
16846;DHT22;8539;53.188;8.696;2023-04-24T05:43:38;10.80;99.90
16846;DHT22;8539;53.188;8.696;2023-04-24T05:46:04;10.80;99.90
16846;DHT22;8539;53.188;8.696;2023-04-24T05:48:30;10.80;99.90
16846;DHT22;8539;53.188;8.696;2023-04-24T05:50:56;10.80;99.90
16846;DHT22;8539;53.188;8.696;2023-04-24T05:53:22;10.80;99.90
16846;DHT22;8539;53.188;8.696;2023-04-24T05:55:48;10.80;99.90
16846;DHT22;8539;53.188;8.696;2023-04-24T05:58:15;10.90;99.90
16846;DHT22;8539;53.188;8.696;2023-04-24T06:00:41;10.90;99.90
16846;DHT22;8539;53.188;8.696;2023-04-24T06:03:08;10.90;99.90
16846;DHT22;8539;53.188;8.696;2023-04-24T06:05:34;11.00;99.90
16846;DHT22;8539;53.188;8.696;2023-04-24T06:08:01;11.00;99.90
16846;DHT22;8539;53.188;8.696;2023-04-24T06:10:27;11.10;99.90
16846;DHT22;8539;53.188;8.696;2023-04-24T06:12:53;11.00;99.90
16846;DHT22;8539;53.188;8.696;2023-04-24T06:15:22;11.00;99.90
16846;DHT22;8539;53.188;8.696;2023-04-24T06:17:48;11.00;99.90
16846;DHT22;8539;53.188;8.696;2023-04-24T06:20:14;11.10;99.90
16846;DHT22;8539;53.188;8.696;2023-04-24T06:22:40;11.10;99.90
16846;DHT22;8539;53.188;8.696;2023-04-24T06:25:07;11.10;99.90
16846;DHT22;8539;53.188;8.696;2023-04-24T06:27:33;11.10;99.90
16846;DHT22;8539;53.188;8.696;2023-04-24T06:29:59;11.10;99.90
16846;DHT22;8539;53.188;8.696;2023-04-24T06:32:26;11.20;99.90
16846;DHT22;8539;53.188;8.696;2023-04-24T06:34:53;11.10;99.90
16846;DHT22;8539;53.188;8.696;2023-04-24T06:37:19;11.10;99.90
16846;DHT22;8539;53.188;8.696;2023-04-24T06:39:46;11.00;99.90
16846;DHT22;8539;53.188;8.696;2023-04-24T06:42:12;11.00;99.90
16846;DHT22;8539;53.188;8.696;2023-04-24T06:44:39;11.00;99.90
16846;DHT22;8539;53.188;8.696;2023-04-24T06:47:09;10.90;99.90
16846;DHT22;8539;53.188;8.696;2023-04-24T06:49:38;10.90;99.90
16846;DHT22;8539;53.188;8.696;2023-04-24T06:52:04;10.90;99.90
16846;DHT22;8539;53.188;8.696;2023-04-24T06:54:31;11.00;99.90
16846;DHT22;8539;53.188;8.696;2023-04-24T06:56:59;11.00;99.90
16846;DHT22;8539;53.188;8.696;2023-04-24T06:59:27;11.00;99.90
16846;DHT22;8539;53.188;8.696;2023-04-24T07:01:55;10.90;99.90
16846;DHT22;8539;53.188;8.696;2023-04-24T07:04:22;11.00;99.90
16846;DHT22;8539;53.188;8.696;2023-04-24T07:06:48;11.00;99.90
16846;DHT22;8539;53.188;8.696;2023-04-24T07:09:18;11.00;99.90
16846;DHT22;8539;53.188;8.696;2023-04-24T07:11:45;11.10;99.90
16846;DHT22;8539;53.188;8.696;2023-04-24T07:14:12;11.00;99.90
16846;DHT22;8539;53.188;8.696;2023-04-24T07:16:38;11.00;99.90
16846;DHT22;8539;53.188;8.696;2023-04-24T07:19:05;11.00;99.90
16846;DHT22;8539;53.188;8.696;2023-04-24T07:21:31;11.10;99.90
16846;DHT22;8539;53.188;8.696;2023-04-24T07:23:58;11.10;99.90
16846;DHT22;8539;53.188;8.696;2023-04-24T07:26:25;11.20;99.90
16846;DHT22;8539;53.188;8.696;2023-04-24T07:28:51;11.20;99.90
16846;DHT22;8539;53.188;8.696;2023-04-24T07:31:19;11.20;99.90
16846;DHT22;8539;53.188;8.696;2023-04-24T07:33:45;11.20;99.90
16846;DHT22;8539;53.188;8.696;2023-04-24T07:36:11;11.20;99.90
16846;DHT22;8539;53.188;8.696;2023-04-24T07:38:42;11.10;99.90
16846;DHT22;8539;53.188;8.696;2023-04-24T07:41:08;11.10;99.90
16846;DHT22;8539;53.188;8.696;2023-04-24T07:43:35;11.10;99.90
16846;DHT22;8539;53.188;8.696;2023-04-24T07:46:04;11.20;99.90
16846;DHT22;8539;53.188;8.696;2023-04-24T07:48:30;11.20;99.90
16846;DHT22;8539;53.188;8.696;2023-04-24T07:50:56;11.30;99.90
16846;DHT22;8539;53.188;8.696;2023-04-24T07:53:24;11.30;99.90
16846;DHT22;8539;53.188;8.696;2023-04-24T07:55:50;11.40;99.90
16846;DHT22;8539;53.188;8.696;2023-04-24T07:58:16;11.40;99.90
16846;DHT22;8539;53.188;8.696;2023-04-24T08:00:42;11.50;99.90
16846;DHT22;8539;53.188;8.696;2023-04-24T08:03:08;11.60;99.90
16846;DHT22;8539;53.188;8.696;2023-04-24T08:05:34;11.60;99.90
16846;DHT22;8539;53.188;8.696;2023-04-24T08:08:01;11.60;99.90
16846;DHT22;8539;53.188;8.696;2023-04-24T08:10:27;11.60;99.90
16846;DHT22;8539;53.188;8.696;2023-04-24T08:12:54;11.60;99.90
16846;DHT22;8539;53.188;8.696;2023-04-24T08:15:21;11.70;99.90
16846;DHT22;8539;53.188;8.696;2023-04-24T08:17:47;11.70;99.90
16846;DHT22;8539;53.188;8.696;2023-04-24T08:20:13;11.70;99.90
16846;DHT22;8539;53.188;8.696;2023-04-24T08:22:40;11.70;99.90
16846;DHT22;8539;53.188;8.696;2023-04-24T08:25:07;11.70;99.90
16846;DHT22;8539;53.188;8.696;2023-04-24T08:27:33;11.70;99.90
16846;DHT22;8539;53.188;8.696;2023-04-24T08:30:00;11.60;99.90
16846;DHT22;8539;53.188;8.696;2023-04-24T08:32:26;11.60;99.90
16846;DHT22;8539;53.188;8.696;2023-04-24T08:34:56;11.50;99.90
16846;DHT22;8539;53.188;8.696;2023-04-24T08:37:23;11.50;99.90
16846;DHT22;8539;53.188;8.696;2023-04-24T08:39:50;11.50;99.90
16846;DHT22;8539;53.188;8.696;2023-04-24T08:42:18;11.50;99.90
16846;DHT22;8539;53.188;8.696;2023-04-24T08:44:44;11.50;99.90
16846;DHT22;8539;53.188;8.696;2023-04-24T08:47:11;11.50;99.90
16846;DHT22;8539;53.188;8.696;2023-04-24T08:49:38;11.40;99.90
16846;DHT22;8539;53.188;8.696;2023-04-24T08:52:08;11.30;99.90
16846;DHT22;8539;53.188;8.696;2023-04-24T08:54:35;11.30;99.90
16846;DHT22;8539;53.188;8.696;2023-04-24T08:57:02;11.20;99.90
16846;DHT22;8539;53.188;8.696;2023-04-24T08:59:30;11.20;99.90
16846;DHT22;8539;53.188;8.696;2023-04-24T09:01:57;11.20;99.90
16846;DHT22;8539;53.188;8.696;2023-04-24T09:04:24;11.20;99.90
16846;DHT22;8539;53.188;8.696;2023-04-24T09:06:55;11.20;99.90
16846;DHT22;8539;53.188;8.696;2023-04-24T09:09:23;11.20;99.90
16846;DHT22;8539;53.188;8.696;2023-04-24T09:11:50;11.20;99.90
16846;DHT22;8539;53.188;8.696;2023-04-24T09:14:17;11.20;99.90
16846;DHT22;8539;53.188;8.696;2023-04-24T09:16:43;11.20;99.90
16846;DHT22;8539;53.188;8.696;2023-04-24T09:19:09;11.30;99.90
16846;DHT22;8539;53.188;8.696;2023-04-24T09:21:35;11.30;99.90
16846;DHT22;8539;53.188;8.696;2023-04-24T09:24:05;11.30;99.90
16846;DHT22;8539;53.188;8.696;2023-04-24T09:26:34;11.30;99.90
16846;DHT22;8539;53.188;8.696;2023-04-24T09:29:01;11.30;99.90
16846;DHT22;8539;53.188;8.696;2023-04-24T09:31:28;11.30;99.90
16846;DHT22;8539;53.188;8.696;2023-04-24T09:33:58;11.30;99.90
16846;DHT22;8539;53.188;8.696;2023-04-24T09:36:35;11.30;99.90
16846;DHT22;8539;53.188;8.696;2023-04-24T09:39:05;11.30;99.90
16846;DHT22;8539;53.188;8.696;2023-04-24T09:41:34;11.20;99.90
16846;DHT22;8539;53.188;8.696;2023-04-24T09:44:23;11.20;99.90
16846;DHT22;8539;53.188;8.696;2023-04-24T09:46:55;11.20;99.90
16846;DHT22;8539;53.188;8.696;2023-04-24T09:49:30;11.20;99.90
16846;DHT22;8539;53.188;8.696;2023-04-24T09:52:09;11.20;99.90
16846;DHT22;8539;53.188;8.696;2023-04-24T09:54:36;11.30;99.90
16846;DHT22;8539;53.188;8.696;2023-04-24T09:57:03;11.30;99.90
16846;DHT22;8539;53.188;8.696;2023-04-24T09:59:29;11.30;99.90
16846;DHT22;8539;53.188;8.696;2023-04-24T10:01:59;11.40;99.90
16846;DHT22;8539;53.188;8.696;2023-04-24T10:04:26;11.40;99.90
16846;DHT22;8539;53.188;8.696;2023-04-24T10:06:55;11.40;99.90
16846;DHT22;8539;53.188;8.696;2023-04-24T10:09:24;11.40;99.90
16846;DHT22;8539;53.188;8.696;2023-04-24T10:11:51;11.30;99.90
16846;DHT22;8539;53.188;8.696;2023-04-24T10:14:25;11.30;99.90
16846;DHT22;8539;53.188;8.696;2023-04-24T10:16:54;11.20;99.90
16846;DHT22;8539;53.188;8.696;2023-04-24T10:19:20;11.10;99.90
16846;DHT22;8539;53.188;8.696;2023-04-24T10:21:47;11.00;99.90
16846;DHT22;8539;53.188;8.696;2023-04-24T10:24:17;11.00;99.90
16846;DHT22;8539;53.188;8.696;2023-04-24T10:26:45;10.90;99.90
16846;DHT22;8539;53.188;8.696;2023-04-24T10:29:14;11.00;99.90
16846;DHT22;8539;53.188;8.696;2023-04-24T10:31:41;11.10;99.90
16846;DHT22;8539;53.188;8.696;2023-04-24T10:34:09;11.10;99.90
16846;DHT22;8539;53.188;8.696;2023-04-24T10:36:38;11.20;99.90
16846;DHT22;8539;53.188;8.696;2023-04-24T10:39:09;11.30;99.90
16846;DHT22;8539;53.188;8.696;2023-04-24T10:41:37;11.40;99.90
16846;DHT22;8539;53.188;8.696;2023-04-24T10:44:08;11.40;99.90
16846;DHT22;8539;53.188;8.696;2023-04-24T10:46:34;11.50;99.90
16846;DHT22;8539;53.188;8.696;2023-04-24T10:49:04;11.50;99.90
16846;DHT22;8539;53.188;8.696;2023-04-24T10:51:59;11.50;99.90
16846;DHT22;8539;53.188;8.696;2023-04-24T10:54:41;11.50;99.90
16846;DHT22;8539;53.188;8.696;2023-04-24T10:59:49;11.60;99.90
16846;DHT22;8539;53.188;8.696;2023-04-24T11:02:17;11.50;99.90
16846;DHT22;8539;53.188;8.696;2023-04-24T11:04:44;11.40;99.90
16846;DHT22;8539;53.188;8.696;2023-04-24T11:07:13;11.30;99.90
16846;DHT22;8539;53.188;8.696;2023-04-24T11:09:42;11.10;99.90
16846;DHT22;8539;53.188;8.696;2023-04-24T11:12:10;11.00;99.90
16846;DHT22;8539;53.188;8.696;2023-04-24T11:17:38;10.80;99.90
16846;DHT22;8539;53.188;8.696;2023-04-24T11:20:16;10.80;99.90
16846;DHT22;8539;53.188;8.696;2023-04-24T11:22:42;10.70;99.90
16846;DHT22;8539;53.188;8.696;2023-04-24T11:25:09;10.70;99.90
16846;DHT22;8539;53.188;8.696;2023-04-24T11:27:39;10.70;99.90
16846;DHT22;8539;53.188;8.696;2023-04-24T11:30:06;10.70;99.90
16846;DHT22;8539;53.188;8.696;2023-04-24T11:35:08;10.70;99.90
16846;DHT22;8539;53.188;8.696;2023-04-24T11:37:37;10.70;99.90
16846;DHT22;8539;53.188;8.696;2023-04-24T11:40:04;10.60;99.90
16846;DHT22;8539;53.188;8.696;2023-04-24T11:42:39;10.60;99.90
16846;DHT22;8539;53.188;8.696;2023-04-24T11:45:16;10.60;99.90
16846;DHT22;8539;53.188;8.696;2023-04-24T11:47:43;10.50;99.90
16846;DHT22;8539;53.188;8.696;2023-04-24T11:50:14;10.50;99.90
16846;DHT22;8539;53.188;8.696;2023-04-24T11:52:43;10.50;99.90
16846;DHT22;8539;53.188;8.696;2023-04-24T11:57:47;10.40;99.90
16846;DHT22;8539;53.188;8.696;2023-04-24T12:02:51;10.30;99.90
16846;DHT22;8539;53.188;8.696;2023-04-24T12:05:25;10.30;99.90
16846;DHT22;8539;53.188;8.696;2023-04-24T12:07:52;10.30;99.90
16846;DHT22;8539;53.188;8.696;2023-04-24T12:10:27;10.40;99.90
16846;DHT22;8539;53.188;8.696;2023-04-24T12:12:54;10.30;99.90
16846;DHT22;8539;53.188;8.696;2023-04-24T12:15:21;10.20;99.90
16846;DHT22;8539;53.188;8.696;2023-04-24T12:17:50;10.20;99.90
16846;DHT22;8539;53.188;8.696;2023-04-24T12:20:17;10.20;99.90
16846;DHT22;8539;53.188;8.696;2023-04-24T12:22:46;10.20;99.90
16846;DHT22;8539;53.188;8.696;2023-04-24T12:25:17;10.20;99.90
16846;DHT22;8539;53.188;8.696;2023-04-24T12:27:45;10.20;99.90
16846;DHT22;8539;53.188;8.696;2023-04-24T12:30:13;10.10;99.90
16846;DHT22;8539;53.188;8.696;2023-04-24T12:32:48;10.10;99.90
16846;DHT22;8539;53.188;8.696;2023-04-24T12:35:19;10.00;99.90
16846;DHT22;8539;53.188;8.696;2023-04-24T12:37:46;10.00;99.90
16846;DHT22;8539;53.188;8.696;2023-04-24T12:40:14;10.00;99.90
16846;DHT22;8539;53.188;8.696;2023-04-24T12:42:45;10.00;99.90
16846;DHT22;8539;53.188;8.696;2023-04-24T12:45:12;10.00;99.90
16846;DHT22;8539;53.188;8.696;2023-04-24T12:47:39;10.00;99.90
16846;DHT22;8539;53.188;8.696;2023-04-24T12:50:08;10.00;99.90
16846;DHT22;8539;53.188;8.696;2023-04-24T12:52:34;10.00;99.90
16846;DHT22;8539;53.188;8.696;2023-04-24T12:55:01;10.00;99.90
16846;DHT22;8539;53.188;8.696;2023-04-24T12:57:31;10.00;99.90
16846;DHT22;8539;53.188;8.696;2023-04-24T12:59:58;9.90;99.90
16846;DHT22;8539;53.188;8.696;2023-04-24T13:02:25;10.00;99.90
16846;DHT22;8539;53.188;8.696;2023-04-24T13:04:53;9.90;99.90
16846;DHT22;8539;53.188;8.696;2023-04-24T13:07:19;9.90;99.90
16846;DHT22;8539;53.188;8.696;2023-04-24T13:09:47;9.80;99.90
16846;DHT22;8539;53.188;8.696;2023-04-24T13:12:13;9.70;99.90
16846;DHT22;8539;53.188;8.696;2023-04-24T13:14:39;9.60;99.90
16846;DHT22;8539;53.188;8.696;2023-04-24T13:17:05;9.50;99.90
16846;DHT22;8539;53.188;8.696;2023-04-24T13:19:36;9.20;99.90
16846;DHT22;8539;53.188;8.696;2023-04-24T13:22:03;9.20;99.90
16846;DHT22;8539;53.188;8.696;2023-04-24T13:24:29;9.10;99.90
16846;DHT22;8539;53.188;8.696;2023-04-24T13:26:57;9.00;99.90
16846;DHT22;8539;53.188;8.696;2023-04-24T13:29:23;9.00;99.90
16846;DHT22;8539;53.188;8.696;2023-04-24T13:31:53;8.90;99.90
16846;DHT22;8539;53.188;8.696;2023-04-24T13:34:25;8.90;99.90
16846;DHT22;8539;53.188;8.696;2023-04-24T13:36:53;8.90;99.90
16846;DHT22;8539;53.188;8.696;2023-04-24T13:39:20;8.80;99.90
16846;DHT22;8539;53.188;8.696;2023-04-24T13:41:46;8.90;99.90
16846;DHT22;8539;53.188;8.696;2023-04-24T13:44:16;8.80;99.90
16846;DHT22;8539;53.188;8.696;2023-04-24T13:46:44;8.80;99.90
16846;DHT22;8539;53.188;8.696;2023-04-24T13:49:12;8.70;99.90
16846;DHT22;8539;53.188;8.696;2023-04-24T13:51:38;8.70;99.90
16846;DHT22;8539;53.188;8.696;2023-04-24T13:54:05;8.80;99.90
16846;DHT22;8539;53.188;8.696;2023-04-24T13:56:31;8.60;99.90
16846;DHT22;8539;53.188;8.696;2023-04-24T13:58:57;8.70;99.90
16846;DHT22;8539;53.188;8.696;2023-04-24T14:01:23;8.60;99.90
16846;DHT22;8539;53.188;8.696;2023-04-24T14:03:51;8.60;99.90
16846;DHT22;8539;53.188;8.696;2023-04-24T14:06:18;8.60;99.90
16846;DHT22;8539;53.188;8.696;2023-04-24T14:08:45;8.60;99.90
16846;DHT22;8539;53.188;8.696;2023-04-24T14:11:11;8.60;99.90
16846;DHT22;8539;53.188;8.696;2023-04-24T14:13:37;8.60;99.90
16846;DHT22;8539;53.188;8.696;2023-04-24T14:16:04;8.60;99.90
16846;DHT22;8539;53.188;8.696;2023-04-24T14:18:30;8.70;99.90
16846;DHT22;8539;53.188;8.696;2023-04-24T14:20:56;8.60;99.90
16846;DHT22;8539;53.188;8.696;2023-04-24T14:23:22;8.60;99.90
16846;DHT22;8539;53.188;8.696;2023-04-24T14:25:49;8.60;99.90
16846;DHT22;8539;53.188;8.696;2023-04-24T14:28:18;8.60;99.90
16846;DHT22;8539;53.188;8.696;2023-04-24T14:30:44;8.60;99.90
16846;DHT22;8539;53.188;8.696;2023-04-24T14:33:10;8.50;99.90
16846;DHT22;8539;53.188;8.696;2023-04-24T14:35:37;8.70;99.90
16846;DHT22;8539;53.188;8.696;2023-04-24T14:38:04;8.50;99.90
16846;DHT22;8539;53.188;8.696;2023-04-24T14:40:30;8.50;99.90
16846;DHT22;8539;53.188;8.696;2023-04-24T14:42:57;8.50;99.90
16846;DHT22;8539;53.188;8.696;2023-04-24T14:45:24;8.40;99.90
16846;DHT22;8539;53.188;8.696;2023-04-24T14:47:50;8.50;99.90
16846;DHT22;8539;53.188;8.696;2023-04-24T14:50:16;8.40;99.90
16846;DHT22;8539;53.188;8.696;2023-04-24T14:52:42;8.50;99.90
16846;DHT22;8539;53.188;8.696;2023-04-24T14:55:10;8.40;99.90
16846;DHT22;8539;53.188;8.696;2023-04-24T14:57:36;8.50;99.90
16846;DHT22;8539;53.188;8.696;2023-04-24T15:00:04;8.40;99.90
16846;DHT22;8539;53.188;8.696;2023-04-24T15:02:32;8.40;99.90
16846;DHT22;8539;53.188;8.696;2023-04-24T15:04:59;8.40;99.90
16846;DHT22;8539;53.188;8.696;2023-04-24T15:07:25;8.50;99.90
16846;DHT22;8539;53.188;8.696;2023-04-24T15:09:51;8.50;99.90
16846;DHT22;8539;53.188;8.696;2023-04-24T15:12:17;8.50;99.90
16846;DHT22;8539;53.188;8.696;2023-04-24T15:14:43;8.50;99.90
16846;DHT22;8539;53.188;8.696;2023-04-24T15:17:09;8.50;99.90
16846;DHT22;8539;53.188;8.696;2023-04-24T15:19:38;8.50;99.90
16846;DHT22;8539;53.188;8.696;2023-04-24T15:22:05;8.30;99.90
16846;DHT22;8539;53.188;8.696;2023-04-24T15:24:31;8.60;99.90
16846;DHT22;8539;53.188;8.696;2023-04-24T15:26:59;8.60;99.90
16846;DHT22;8539;53.188;8.696;2023-04-24T15:29:25;8.70;99.90
16846;DHT22;8539;53.188;8.696;2023-04-24T15:31:53;8.70;99.90
16846;DHT22;8539;53.188;8.696;2023-04-24T15:34:19;8.70;99.90
16846;DHT22;8539;53.188;8.696;2023-04-24T15:36:45;8.70;99.90
16846;DHT22;8539;53.188;8.696;2023-04-24T15:39:12;8.80;99.90
16846;DHT22;8539;53.188;8.696;2023-04-24T15:41:38;8.70;99.90
16846;DHT22;8539;53.188;8.696;2023-04-24T15:44:04;8.70;99.90
16846;DHT22;8539;53.188;8.696;2023-04-24T15:46:31;8.80;99.90
16846;DHT22;8539;53.188;8.696;2023-04-24T15:48:57;8.70;99.90
16846;DHT22;8539;53.188;8.696;2023-04-24T15:51:24;8.70;99.90
16846;DHT22;8539;53.188;8.696;2023-04-24T15:53:51;8.70;99.90
16846;DHT22;8539;53.188;8.696;2023-04-24T15:56:18;8.70;99.90
16846;DHT22;8539;53.188;8.696;2023-04-24T15:58:45;8.70;99.90
16846;DHT22;8539;53.188;8.696;2023-04-24T16:01:12;8.70;99.90
16846;DHT22;8539;53.188;8.696;2023-04-24T16:03:38;8.70;99.90